In Rescue
 
Open Full Screen Window  High Contrast Mode
Wind Gusting 00 knots
05
May 13, 2021 12:32 PM EDT
Weather Information
Wind Direction
  320 °
Wind Speed
  05 kt (6 mph)
Wind Gust
  00 kt (0 mph)
Altimeter
30.39 in
Visibility
10 SM
Temperature
18° C
64° F
Dewpoint
-01° C
30° F
Humidity
28%
Sky Condition
Broken @ 8,500 ft
VFR

METAR KVLL 131632Z AUTO 32005KT 10SM BKN085 18/M01 A3039 RMK AO2 T01761011

FAA Disclaimer: The data displayed is for advisory purposes only and is not to be used for flight planning or operations.